sensor_id;sensor_type;location;lat;lon;timestamp;noise_LAeq;noise_LA_min;noise_LA_max;noise_LA01;noise_LA95
67308;Laerm;57662;51.436;5.978;2022-08-02T00:00:00;33.27;32.08;38.51;;
67308;Laerm;57662;51.436;5.978;2022-08-02T00:00:11;41.57;32.01;51.64;;
67308;Laerm;57662;51.436;5.978;2022-08-02T00:00:23;33.32;32.08;34.80;;
67308;Laerm;57662;51.436;5.978;2022-08-02T00:00:33;33.49;32.29;35.89;;
67308;Laerm;57662;51.436;5.978;2022-08-02T00:00:44;33.63;32.43;35.09;;
67308;Laerm;57662;51.436;5.978;2022-08-02T00:00:54;34.44;32.87;36.59;;
67308;Laerm;57662;51.436;5.978;2022-08-02T00:01:05;35.36;33.47;37.70;;
67308;Laerm;57662;51.436;5.978;2022-08-02T00:01:15;36.14;33.02;40.48;;
67308;Laerm;57662;51.436;5.978;2022-08-02T00:01:25;34.99;32.79;38.53;;
67308;Laerm;57662;51.436;5.978;2022-08-02T00:01:36;33.11;32.00;34.32;;
67308;Laerm;57662;51.436;5.978;2022-08-02T00:01:46;33.04;31.57;34.03;;
67308;Laerm;57662;51.436;5.978;2022-08-02T00:01:56;33.53;32.23;34.71;;
67308;Laerm;57662;51.436;5.978;2022-08-02T00:02:07;33.64;32.36;35.26;;
67308;Laerm;57662;51.436;5.978;2022-08-02T00:02:17;33.61;31.88;35.02;;
67308;Laerm;57662;51.436;5.978;2022-08-02T00:02:27;33.68;32.52;41.01;;
67308;Laerm;57662;51.436;5.978;2022-08-02T00:02:37;33.47;32.20;34.90;;
67308;Laerm;57662;51.436;5.978;2022-08-02T00:02:48;33.34;32.20;34.58;;
67308;Laerm;57662;51.436;5.978;2022-08-02T00:02:58;33.26;31.94;34.64;;
67308;Laerm;57662;51.436;5.978;2022-08-02T00:03:08;33.30;32.01;34.95;;
67308;Laerm;57662;51.436;5.978;2022-08-02T00:03:18;33.25;31.99;34.27;;
67308;Laerm;57662;51.436;5.978;2022-08-02T00:03:29;33.39;32.01;34.54;;
67308;Laerm;57662;51.436;5.978;2022-08-02T00:03:39;33.41;31.90;34.77;;
67308;Laerm;57662;51.436;5.978;2022-08-02T00:03:49;33.34;32.24;34.65;;
67308;Laerm;57662;51.436;5.978;2022-08-02T00:03:59;33.26;31.97;34.84;;
67308;Laerm;57662;51.436;5.978;2022-08-02T00:04:10;33.49;31.93;34.50;;
67308;Laerm;57662;51.436;5.978;2022-08-02T00:04:20;33.62;32.10;34.89;;
67308;Laerm;57662;51.436;5.978;2022-08-02T00:04:31;33.58;32.50;34.73;;
67308;Laerm;57662;51.436;5.978;2022-08-02T00:04:41;33.33;32.22;34.64;;
67308;Laerm;57662;51.436;5.978;2022-08-02T00:04:51;33.28;31.96;34.88;;
67308;Laerm;57662;51.436;5.978;2022-08-02T00:05:01;33.36;32.25;35.48;;
67308;Laerm;57662;51.436;5.978;2022-08-02T00:05:12;33.49;32.21;34.71;;
67308;Laerm;57662;51.436;5.978;2022-08-02T00:05:22;33.72;32.33;34.97;;
67308;Laerm;57662;51.436;5.978;2022-08-02T00:05:32;33.74;32.59;40.41;;
67308;Laerm;57662;51.436;5.978;2022-08-02T00:05:43;33.72;32.55;35.05;;
67308;Laerm;57662;51.436;5.978;2022-08-02T00:05:54;33.74;32.54;34.88;;
67308;Laerm;57662;51.436;5.978;2022-08-02T00:06:04;33.67;32.23;34.93;;
67308;Laerm;57662;51.436;5.978;2022-08-02T00:06:14;33.42;32.29;34.56;;
67308;Laerm;57662;51.436;5.978;2022-08-02T00:06:24;34.04;32.53;35.20;;
67308;Laerm;57662;51.436;5.978;2022-08-02T00:06:35;34.06;32.86;35.36;;
67308;Laerm;57662;51.436;5.978;2022-08-02T00:06:46;34.02;32.92;35.25;;
67308;Laerm;57662;51.436;5.978;2022-08-02T00:06:56;34.15;32.86;37.73;;
67308;Laerm;57662;51.436;5.978;2022-08-02T00:07:06;34.05;32.79;35.31;;
67308;Laerm;57662;51.436;5.978;2022-08-02T00:07:16;33.96;32.89;35.04;;
67308;Laerm;57662;51.436;5.978;2022-08-02T00:07:27;33.95;32.82;35.02;;
67308;Laerm;57662;51.436;5.978;2022-08-02T00:07:37;33.85;32.40;34.78;;
67308;Laerm;57662;51.436;5.978;2022-08-02T00:07:48;34.16;32.94;38.70;;
67308;Laerm;57662;51.436;5.978;2022-08-02T00:07:58;34.13;32.61;35.53;;
67308;Laerm;57662;51.436;5.978;2022-08-02T00:08:08;34.06;32.52;35.32;;
67308;Laerm;57662;51.436;5.978;2022-08-02T00:08:19;33.65;32.68;34.73;;
67308;Laerm;57662;51.436;5.978;2022-08-02T00:08:30;33.69;32.43;34.86;;
67308;Laerm;57662;51.436;5.978;2022-08-02T00:08:40;33.50;32.34;34.79;;
67308;Laerm;57662;51.436;5.978;2022-08-02T00:08:50;33.64;32.32;35.17;;
67308;Laerm;57662;51.436;5.978;2022-08-02T00:09:00;33.98;32.67;35.37;;
67308;Laerm;57662;51.436;5.978;2022-08-02T00:09:11;33.89;32.50;35.21;;
67308;Laerm;57662;51.436;5.978;2022-08-02T00:09:21;33.66;31.95;39.99;;
67308;Laerm;57662;51.436;5.978;2022-08-02T00:09:32;33.40;32.13;34.51;;
67308;Laerm;57662;51.436;5.978;2022-08-02T00:09:43;33.26;32.16;34.43;;
67308;Laerm;57662;51.436;5.978;2022-08-02T00:09:53;33.41;31.96;34.67;;
67308;Laerm;57662;51.436;5.978;2022-08-02T00:10:03;33.84;32.39;35.04;;
67308;Laerm;57662;51.436;5.978;2022-08-02T00:10:14;33.61;32.41;34.80;;
67308;Laerm;57662;51.436;5.978;2022-08-02T00:10:24;33.32;31.78;34.46;;
67308;Laerm;57662;51.436;5.978;2022-08-02T00:10:34;33.58;32.13;35.21;;
67308;Laerm;57662;51.436;5.978;2022-08-02T00:10:45;33.40;32.21;34.74;;
67308;Laerm;57662;51.436;5.978;2022-08-02T00:10:55;33.54;32.43;34.76;;
67308;Laerm;57662;51.436;5.978;2022-08-02T00:11:05;33.50;32.08;35.04;;
67308;Laerm;57662;51.436;5.978;2022-08-02T00:11:15;33.53;32.35;34.97;;
67308;Laerm;57662;51.436;5.978;2022-08-02T00:11:26;33.68;32.52;35.09;;
67308;Laerm;57662;51.436;5.978;2022-08-02T00:11:36;33.62;32.41;34.75;;
67308;Laerm;57662;51.436;5.978;2022-08-02T00:11:46;33.48;32.20;34.47;;
67308;Laerm;57662;51.436;5.978;2022-08-02T00:11:57;33.57;32.28;34.68;;
67308;Laerm;57662;51.436;5.978;2022-08-02T00:12:07;34.15;32.52;44.27;;
67308;Laerm;57662;51.436;5.978;2022-08-02T00:12:18;33.51;32.23;34.67;;
67308;Laerm;57662;51.436;5.978;2022-08-02T00:12:28;33.53;32.05;34.74;;
67308;Laerm;57662;51.436;5.978;2022-08-02T00:12:38;33.49;32.18;34.63;;
67308;Laerm;57662;51.436;5.978;2022-08-02T00:12:49;33.55;32.16;38.03;;
67308;Laerm;57662;51.436;5.978;2022-08-02T00:12:59;33.61;32.17;35.24;;
67308;Laerm;57662;51.436;5.978;2022-08-02T00:13:09;33.60;32.23;35.74;;
67308;Laerm;57662;51.436;5.978;2022-08-02T00:13:19;33.59;32.10;34.88;;
67308;Laerm;57662;51.436;5.978;2022-08-02T00:13:30;33.68;32.18;34.94;;
67308;Laerm;57662;51.436;5.978;2022-08-02T00:13:40;33.47;32.26;34.77;;
67308;Laerm;57662;51.436;5.978;2022-08-02T00:13:50;33.41;32.08;34.77;;
67308;Laerm;57662;51.436;5.978;2022-08-02T00:14:01;33.65;32.23;39.57;;
67308;Laerm;57662;51.436;5.978;2022-08-02T00:14:11;33.30;32.18;36.32;;
67308;Laerm;57662;51.436;5.978;2022-08-02T00:14:21;33.42;32.02;34.74;;
67308;Laerm;57662;51.436;5.978;2022-08-02T00:14:31;33.36;32.06;34.74;;
67308;Laerm;57662;51.436;5.978;2022-08-02T00:14:42;33.52;32.31;34.83;;
67308;Laerm;57662;51.436;5.978;2022-08-02T00:14:52;33.50;32.20;34.57;;
67308;Laerm;57662;51.436;5.978;2022-08-02T00:15:03;33.61;32.23;34.85;;
67308;Laerm;57662;51.436;5.978;2022-08-02T00:15:14;33.33;31.89;34.47;;
67308;Laerm;57662;51.436;5.978;2022-08-02T00:15:24;33.51;32.17;34.96;;
67308;Laerm;57662;51.436;5.978;2022-08-02T00:15:35;33.78;32.45;35.38;;
67308;Laerm;57662;51.436;5.978;2022-08-02T00:15:45;33.66;32.59;34.82;;
67308;Laerm;57662;51.436;5.978;2022-08-02T00:15:55;33.90;32.35;35.50;;
67308;Laerm;57662;51.436;5.978;2022-08-02T00:16:05;33.96;32.84;34.98;;
67308;Laerm;57662;51.436;5.978;2022-08-02T00:16:16;33.84;32.60;35.34;;
67308;Laerm;57662;51.436;5.978;2022-08-02T00:16:26;34.31;32.75;35.79;;
67308;Laerm;57662;51.436;5.978;2022-08-02T00:16:36;34.25;32.40;35.24;;
67308;Laerm;57662;51.436;5.978;2022-08-02T00:16:47;34.36;33.12;35.61;;
67308;Laerm;57662;51.436;5.978;2022-08-02T00:16:57;34.46;33.35;35.57;;
67308;Laerm;57662;51.436;5.978;2022-08-02T00:17:07;34.21;32.77;35.73;;
67308;Laerm;57662;51.436;5.978;2022-08-02T00:17:17;34.68;33.11;36.43;;
67308;Laerm;57662;51.436;5.978;2022-08-02T00:17:28;34.43;32.41;35.73;;
67308;Laerm;57662;51.436;5.978;2022-08-02T00:17:38;34.35;33.28;35.54;;
67308;Laerm;57662;51.436;5.978;2022-08-02T00:17:48;34.30;33.02;35.59;;
67308;Laerm;57662;51.436;5.978;2022-08-02T00:17:59;33.96;32.56;35.40;;
67308;Laerm;57662;51.436;5.978;2022-08-02T00:18:09;34.02;33.03;35.24;;
67308;Laerm;57662;51.436;5.978;2022-08-02T00:18:19;33.91;32.55;35.39;;
67308;Laerm;57662;51.436;5.978;2022-08-02T00:18:29;33.90;32.63;34.89;;
67308;Laerm;57662;51.436;5.978;2022-08-02T00:18:40;34.04;32.47;41.25;;
67308;Laerm;57662;51.436;5.978;2022-08-02T00:18:50;34.26;32.78;39.38;;
67308;Laerm;57662;51.436;5.978;2022-08-02T00:19:00;33.90;32.56;34.85;;
67308;Laerm;57662;51.436;5.978;2022-08-02T00:19:11;34.11;32.95;35.42;;
67308;Laerm;57662;51.436;5.978;2022-08-02T00:19:21;34.14;32.80;35.31;;
67308;Laerm;57662;51.436;5.978;2022-08-02T00:19:31;33.94;32.23;35.10;;
67308;Laerm;57662;51.436;5.978;2022-08-02T00:19:41;33.99;32.79;35.24;;
67308;Laerm;57662;51.436;5.978;2022-08-02T00:19:52;34.27;32.85;36.40;;
67308;Laerm;57662;51.436;5.978;2022-08-02T00:20:03;34.10;32.75;35.18;;
67308;Laerm;57662;51.436;5.978;2022-08-02T00:20:13;33.86;32.65;35.03;;
67308;Laerm;57662;51.436;5.978;2022-08-02T00:20:24;33.78;32.70;34.81;;
67308;Laerm;57662;51.436;5.978;2022-08-02T00:20:34;33.83;32.59;37.57;;
67308;Laerm;57662;51.436;5.978;2022-08-02T00:20:44;33.60;32.37;34.72;;
67308;Laerm;57662;51.436;5.978;2022-08-02T00:20:55;33.91;32.74;35.03;;
67308;Laerm;57662;51.436;5.978;2022-08-02T00:21:05;33.96;32.64;35.43;;
67308;Laerm;57662;51.436;5.978;2022-08-02T00:21:15;34.07;32.63;35.47;;
67308;Laerm;57662;51.436;5.978;2022-08-02T00:21:25;34.25;33.10;35.48;;
67308;Laerm;57662;51.436;5.978;2022-08-02T00:21:36;34.52;32.74;36.70;;
67308;Laerm;57662;51.436;5.978;2022-08-02T00:21:46;38.32;33.77;44.41;;
67308;Laerm;57662;51.436;5.978;2022-08-02T00:21:56;34.07;32.84;35.33;;
67308;Laerm;57662;51.436;5.978;2022-08-02T00:22:06;33.85;32.55;35.00;;
67308;Laerm;57662;51.436;5.978;2022-08-02T00:22:17;34.62;33.14;37.19;;
67308;Laerm;57662;51.436;5.978;2022-08-02T00:22:27;34.40;33.11;36.19;;
67308;Laerm;57662;51.436;5.978;2022-08-02T00:22:37;34.35;32.95;37.50;;
67308;Laerm;57662;51.436;5.978;2022-08-02T00:22:47;33.80;32.56;34.98;;
67308;Laerm;57662;51.436;5.978;2022-08-02T00:22:58;33.67;32.28;35.01;;
67308;Laerm;57662;51.436;5.978;2022-08-02T00:23:08;33.92;32.72;40.93;;
67308;Laerm;57662;51.436;5.978;2022-08-02T00:23:18;33.91;32.74;35.50;;
67308;Laerm;57662;51.436;5.978;2022-08-02T00:23:29;33.81;32.73;34.91;;
67308;Laerm;57662;51.436;5.978;2022-08-02T00:23:39;33.79;32.65;35.15;;
67308;Laerm;57662;51.436;5.978;2022-08-02T00:23:49;33.70;32.45;34.98;;
67308;Laerm;57662;51.436;5.978;2022-08-02T00:23:59;33.82;32.69;35.81;;
67308;Laerm;57662;51.436;5.978;2022-08-02T00:24:10;33.70;32.56;34.94;;
67308;Laerm;57662;51.436;5.978;2022-08-02T00:24:20;33.70;32.40;35.29;;
67308;Laerm;57662;51.436;5.978;2022-08-02T00:24:30;33.75;32.63;35.06;;
67308;Laerm;57662;51.436;5.978;2022-08-02T00:24:40;33.57;32.11;34.89;;
67308;Laerm;57662;51.436;5.978;2022-08-02T00:24:51;33.74;32.32;39.89;;
67308;Laerm;57662;51.436;5.978;2022-08-02T00:25:01;33.77;32.40;39.48;;
67308;Laerm;57662;51.436;5.978;2022-08-02T00:25:11;33.71;32.57;34.74;;
67308;Laerm;57662;51.436;5.978;2022-08-02T00:25:21;33.70;32.31;34.66;;
67308;Laerm;57662;51.436;5.978;2022-08-02T00:25:32;33.49;32.18;34.64;;
67308;Laerm;57662;51.436;5.978;2022-08-02T00:25:42;33.70;32.34;38.81;;
67308;Laerm;57662;51.436;5.978;2022-08-02T00:25:52;33.66;32.26;36.82;;
67308;Laerm;57662;51.436;5.978;2022-08-02T00:26:02;33.52;32.52;34.89;;
67308;Laerm;57662;51.436;5.978;2022-08-02T00:26:13;33.61;32.23;34.82;;
67308;Laerm;57662;51.436;5.978;2022-08-02T00:26:23;33.60;32.27;35.08;;
67308;Laerm;57662;51.436;5.978;2022-08-02T00:26:33;33.63;32.47;34.90;;
67308;Laerm;57662;51.436;5.978;2022-08-02T00:26:44;33.67;32.41;34.97;;
67308;Laerm;57662;51.436;5.978;2022-08-02T00:26:54;34.37;32.67;36.71;;
67308;Laerm;57662;51.436;5.978;2022-08-02T00:27:04;35.71;33.27;40.81;;
67308;Laerm;57662;51.436;5.978;2022-08-02T00:27:17;33.91;32.63;38.67;;
67308;Laerm;57662;51.436;5.978;2022-08-02T00:27:27;33.96;32.64;39.45;;
67308;Laerm;57662;51.436;5.978;2022-08-02T00:27:37;33.82;32.53;36.10;;
67308;Laerm;57662;51.436;5.978;2022-08-02T00:27:48;43.15;32.70;48.90;;
67308;Laerm;57662;51.436;5.978;2022-08-02T00:27:58;45.91;40.11;49.09;;
67308;Laerm;57662;51.436;5.978;2022-08-02T00:28:08;44.91;40.75;47.48;;
67308;Laerm;57662;51.436;5.978;2022-08-02T00:28:20;44.43;40.84;47.18;;
67308;Laerm;57662;51.436;5.978;2022-08-02T00:28:30;62.10;42.93;69.82;;
67308;Laerm;57662;51.436;5.978;2022-08-02T00:28:40;69.91;64.95;74.08;;
67308;Laerm;57662;51.436;5.978;2022-08-02T00:28:51;67.94;60.82;71.32;;
67308;Laerm;57662;51.436;5.978;2022-08-02T00:29:01;56.54;49.29;63.11;;
67308;Laerm;57662;51.436;5.978;2022-08-02T00:29:11;50.22;44.47;54.36;;
67308;Laerm;57662;51.436;5.978;2022-08-02T00:29:21;44.94;41.34;48.12;;
67308;Laerm;57662;51.436;5.978;2022-08-02T00:29:32;43.23;39.51;47.82;;
67308;Laerm;57662;51.436;5.978;2022-08-02T00:29:42;39.96;36.92;43.43;;
67308;Laerm;57662;51.436;5.978;2022-08-02T00:29:52;37.78;35.37;40.84;;
67308;Laerm;57662;51.436;5.978;2022-08-02T00:30:04;37.01;34.79;39.48;;
67308;Laerm;57662;51.436;5.978;2022-08-02T00:30:14;35.95;34.09;38.01;;
67308;Laerm;57662;51.436;5.978;2022-08-02T00:30:25;34.76;32.96;36.73;;
67308;Laerm;57662;51.436;5.978;2022-08-02T00:30:35;34.43;33.03;35.74;;
67308;Laerm;57662;51.436;5.978;2022-08-02T00:30:45;33.98;32.51;35.42;;
67308;Laerm;57662;51.436;5.978;2022-08-02T00:30:56;33.84;32.54;35.36;;
67308;Laerm;57662;51.436;5.978;2022-08-02T00:31:07;39.35;32.46;52.57;;
67308;Laerm;57662;51.436;5.978;2022-08-02T00:31:17;35.46;32.55;43.62;;
67308;Laerm;57662;51.436;5.978;2022-08-02T00:31:27;33.85;32.35;35.31;;
67308;Laerm;57662;51.436;5.978;2022-08-02T00:31:38;33.67;32.42;35.03;;
67308;Laerm;57662;51.436;5.978;2022-08-02T00:31:48;33.85;32.57;35.46;;
67308;Laerm;57662;51.436;5.978;2022-08-02T00:31:58;33.47;32.03;34.74;;
67308;Laerm;57662;51.436;5.978;2022-08-02T00:32:08;33.39;32.06;34.48;;
67308;Laerm;57662;51.436;5.978;2022-08-02T00:32:19;33.45;32.10;34.81;;
67308;Laerm;57662;51.436;5.978;2022-08-02T00:32:29;33.64;32.05;35.12;;
67308;Laerm;57662;51.436;5.978;2022-08-02T00:32:39;34.88;32.80;38.56;;
67308;Laerm;57662;51.436;5.978;2022-08-02T00:32:50;34.97;33.02;40.09;;
67308;Laerm;57662;51.436;5.978;2022-08-02T00:33:00;43.10;35.96;47.72;;
67308;Laerm;57662;51.436;5.978;2022-08-02T00:33:11;40.40;34.42;46.72;;
67308;Laerm;57662;51.436;5.978;2022-08-02T00:33:21;35.54;33.40;38.66;;
67308;Laerm;57662;51.436;5.978;2022-08-02T00:33:32;33.89;32.30;35.49;;
67308;Laerm;57662;51.436;5.978;2022-08-02T00:33:42;33.57;32.51;34.62;;
67308;Laerm;57662;51.436;5.978;2022-08-02T00:33:52;33.54;32.24;34.94;;
67308;Laerm;57662;51.436;5.978;2022-08-02T00:34:02;33.41;32.12;34.71;;
67308;Laerm;57662;51.436;5.978;2022-08-02T00:34:13;34.61;32.75;39.43;;
67308;Laerm;57662;51.436;5.978;2022-08-02T00:34:23;33.48;31.80;35.01;;
67308;Laerm;57662;51.436;5.978;2022-08-02T00:34:34;33.45;32.23;34.84;;
67308;Laerm;57662;51.436;5.978;2022-08-02T00:34:44;33.64;32.26;34.92;;
67308;Laerm;57662;51.436;5.978;2022-08-02T00:34:54;33.67;32.16;38.83;;
67308;Laerm;57662;51.436;5.978;2022-08-02T00:35:04;33.41;31.90;34.88;;
67308;Laerm;57662;51.436;5.978;2022-08-02T00:35:15;33.55;32.30;34.71;;
67308;Laerm;57662;51.436;5.978;2022-08-02T00:35:25;33.73;32.38;35.35;;
67308;Laerm;57662;51.436;5.978;2022-08-02T00:35:35;33.46;32.27;34.71;;
67308;Laerm;57662;51.436;5.978;2022-08-02T00:35:46;33.36;32.09;35.49;;
67308;Laerm;57662;51.436;5.978;2022-08-02T00:35:56;33.21;31.92;37.74;;
67308;Laerm;57662;51.436;5.978;2022-08-02T00:36:06;33.21;32.20;34.26;;
67308;Laerm;57662;51.436;5.978;2022-08-02T00:36:16;33.31;32.23;34.34;;
67308;Laerm;57662;51.436;5.978;2022-08-02T00:36:27;33.35;32.02;34.65;;
67308;Laerm;57662;51.436;5.978;2022-08-02T00:36:37;33.61;32.45;34.83;;
67308;Laerm;57662;51.436;5.978;2022-08-02T00:36:47;33.48;32.05;34.52;;
67308;Laerm;57662;51.436;5.978;2022-08-02T00:36:57;33.73;32.36;41.46;;
67308;Laerm;57662;51.436;5.978;2022-08-02T00:37:08;33.49;32.39;35.18;;
67308;Laerm;57662;51.436;5.978;2022-08-02T00:37:18;33.66;32.30;34.64;;
67308;Laerm;57662;51.436;5.978;2022-08-02T00:37:28;33.75;32.34;34.94;;
67308;Laerm;57662;51.436;5.978;2022-08-02T00:37:39;33.73;32.37;35.15;;
67308;Laerm;57662;51.436;5.978;2022-08-02T00:37:49;34.02;32.60;35.32;;
67308;Laerm;57662;51.436;5.978;2022-08-02T00:38:00;36.97;33.08;42.96;;
67308;Laerm;57662;51.436;5.978;2022-08-02T00:38:11;33.68;32.28;35.02;;
67308;Laerm;57662;51.436;5.978;2022-08-02T00:38:21;33.50;32.20;34.94;;
67308;Laerm;57662;51.436;5.978;2022-08-02T00:38:32;33.64;32.30;34.80;;
67308;Laerm;57662;51.436;5.978;2022-08-02T00:38:42;33.45;32.02;34.86;;
67308;Laerm;57662;51.436;5.978;2022-08-02T00:38:52;34.20;32.88;35.97;;
67308;Laerm;57662;51.436;5.978;2022-08-02T00:39:03;33.65;32.55;34.88;;
67308;Laerm;57662;51.436;5.978;2022-08-02T00:39:13;33.45;32.25;34.81;;
67308;Laerm;57662;51.436;5.978;2022-08-02T00:39:23;34.41;32.62;36.15;;
67308;Laerm;57662;51.436;5.978;2022-08-02T00:39:33;34.60;32.96;36.61;;
67308;Laerm;57662;51.436;5.978;2022-08-02T00:39:45;33.52;32.26;34.57;;
67308;Laerm;57662;51.436;5.978;2022-08-02T00:39:55;33.56;32.07;34.86;;
67308;Laerm;57662;51.436;5.978;2022-08-02T00:40:07;33.60;32.58;34.83;;
67308;Laerm;57662;51.436;5.978;2022-08-02T00:40:19;33.53;32.15;35.23;;
67308;Laerm;57662;51.436;5.978;2022-08-02T00:40:30;33.44;31.98;34.84;;
67308;Laerm;57662;51.436;5.978;2022-08-02T00:40:45;33.58;32.27;34.95;;
67308;Laerm;57662;51.436;5.978;2022-08-02T00:40:55;33.56;32.24;35.39;;
67308;Laerm;57662;51.436;5.978;2022-08-02T00:41:10;33.60;32.24;34.62;;
67308;Laerm;57662;51.436;5.978;2022-08-02T00:41:21;33.58;32.31;34.66;;
67308;Laerm;57662;51.436;5.978;2022-08-02T00:41:31;33.54;32.54;34.84;;
67308;Laerm;57662;51.436;5.978;2022-08-02T00:41:48;33.58;32.51;34.48;;
67308;Laerm;57662;51.436;5.978;2022-08-02T00:41:58;33.58;32.47;34.74;;
67308;Laerm;57662;51.436;5.978;2022-08-02T00:42:09;33.57;32.36;34.60;;
67308;Laerm;57662;51.436;5.978;2022-08-02T00:42:19;33.69;32.15;35.12;;
67308;Laerm;57662;51.436;5.978;2022-08-02T00:42:30;33.94;32.66;35.32;;
67308;Laerm;57662;51.436;5.978;2022-08-02T00:42:40;33.96;32.61;35.44;;
67308;Laerm;57662;51.436;5.978;2022-08-02T00:43:00;33.80;32.40;34.83;;
67308;Laerm;57662;51.436;5.978;2022-08-02T00:43:13;33.76;32.61;35.12;;
67308;Laerm;57662;51.436;5.978;2022-08-02T00:43:23;33.66;32.46;35.04;;
67308;Laerm;57662;51.436;5.978;2022-08-02T00:43:33;33.47;32.07;35.23;;
67308;Laerm;57662;51.436;5.978;2022-08-02T00:43:44;33.84;32.74;35.56;;
67308;Laerm;57662;51.436;5.978;2022-08-02T00:43:54;33.62;31.85;34.76;;
67308;Laerm;57662;51.436;5.978;2022-08-02T00:44:06;33.81;32.56;35.64;;
67308;Laerm;57662;51.436;5.978;2022-08-02T00:44:17;33.80;32.72;35.21;;
67308;Laerm;57662;51.436;5.978;2022-08-02T00:44:27;33.96;32.70;35.39;;
67308;Laerm;57662;51.436;5.978;2022-08-02T00:44:38;33.75;32.11;35.17;;
67308;Laerm;57662;51.436;5.978;2022-08-02T00:44:48;33.73;32.38;34.77;;
67308;Laerm;57662;51.436;5.978;2022-08-02T00:44:58;34.23;33.03;35.59;;
67308;Laerm;57662;51.436;5.978;2022-08-02T00:45:09;36.02;33.65;38.46;;
67308;Laerm;57662;51.436;5.978;2022-08-02T00:45:19;34.82;32.85;37.28;;
67308;Laerm;57662;51.436;5.978;2022-08-02T00:45:30;34.40;32.72;37.29;;
67308;Laerm;57662;51.436;5.978;2022-08-02T00:45:41;34.07;32.73;34.97;;
67308;Laerm;57662;51.436;5.978;2022-08-02T00:45:51;36.98;33.50;40.54;;
67308;Laerm;57662;51.436;5.978;2022-08-02T00:46:01;35.32;32.72;39.37;;
67308;Laerm;57662;51.436;5.978;2022-08-02T00:46:12;33.98;32.89;35.27;;
67308;Laerm;57662;51.436;5.978;2022-08-02T00:46:22;33.66;31.99;34.71;;
67308;Laerm;57662;51.436;5.978;2022-08-02T00:46:33;34.32;32.57;37.90;;
67308;Laerm;57662;51.436;5.978;2022-08-02T00:46:43;38.63;32.98;47.60;;
67308;Laerm;57662;51.436;5.978;2022-08-02T00:46:53;34.25;32.41;35.96;;
67308;Laerm;57662;51.436;5.978;2022-08-02T00:47:03;33.57;32.34;34.69;;
67308;Laerm;57662;51.436;5.978;2022-08-02T00:47:14;33.62;32.54;34.72;;
67308;Laerm;57662;51.436;5.978;2022-08-02T00:47:24;33.52;32.59;34.81;;
67308;Laerm;57662;51.436;5.978;2022-08-02T00:47:34;33.57;31.99;34.61;;
67308;Laerm;57662;51.436;5.978;2022-08-02T00:47:45;33.47;32.06;34.78;;
67308;Laerm;57662;51.436;5.978;2022-08-02T00:47:55;33.57;32.38;34.55;;
67308;Laerm;57662;51.436;5.978;2022-08-02T00:48:06;33.40;32.09;34.47;;
67308;Laerm;57662;51.436;5.978;2022-08-02T00:48:16;33.42;32.06;34.45;;
67308;Laerm;57662;51.436;5.978;2022-08-02T00:48:27;33.49;32.17;34.43;;
67308;Laerm;57662;51.436;5.978;2022-08-02T00:48:37;33.55;32.45;34.80;;
67308;Laerm;57662;51.436;5.978;2022-08-02T00:48:47;33.43;32.14;34.73;;
67308;Laerm;57662;51.436;5.978;2022-08-02T00:48:58;33.45;32.17;35.02;;
67308;Laerm;57662;51.436;5.978;2022-08-02T00:49:08;33.24;32.10;34.33;;
67308;Laerm;57662;51.436;5.978;2022-08-02T00:49:19;33.28;32.08;34.59;;
67308;Laerm;57662;51.436;5.978;2022-08-02T00:49:29;33.67;32.43;34.93;;
67308;Laerm;57662;51.436;5.978;2022-08-02T00:49:39;33.42;32.01;34.85;;
67308;Laerm;57662;51.436;5.978;2022-08-02T00:49:49;33.57;32.41;34.68;;
67308;Laerm;57662;51.436;5.978;2022-08-02T00:50:00;33.52;32.23;35.13;;
67308;Laerm;57662;51.436;5.978;2022-08-02T00:50:10;33.54;32.31;35.26;;
67308;Laerm;57662;51.436;5.978;2022-08-02T00:50:20;33.74;32.54;34.80;;
67308;Laerm;57662;51.436;5.978;2022-08-02T00:50:31;33.42;31.76;34.78;;
67308;Laerm;57662;51.436;5.978;2022-08-02T00:50:42;33.35;32.03;34.87;;
67308;Laerm;57662;51.436;5.978;2022-08-02T00:50:52;33.30;31.91;34.45;;
67308;Laerm;57662;51.436;5.978;2022-08-02T00:51:02;33.48;32.20;34.81;;
67308;Laerm;57662;51.436;5.978;2022-08-02T00:51:13;33.34;32.04;34.82;;
67308;Laerm;57662;51.436;5.978;2022-08-02T00:51:23;33.14;31.74;34.22;;
67308;Laerm;57662;51.436;5.978;2022-08-02T00:51:33;33.29;32.14;34.74;;
67308;Laerm;57662;51.436;5.978;2022-08-02T00:51:44;33.38;32.22;34.83;;
67308;Laerm;57662;51.436;5.978;2022-08-02T00:51:54;33.36;32.24;34.50;;
67308;Laerm;57662;51.436;5.978;2022-08-02T00:52:04;33.25;31.50;34.32;;
67308;Laerm;57662;51.436;5.978;2022-08-02T00:52:14;33.37;32.32;34.47;;
67308;Laerm;57662;51.436;5.978;2022-08-02T00:52:25;33.68;32.21;34.82;;
67308;Laerm;57662;51.436;5.978;2022-08-02T00:52:35;33.57;32.34;34.95;;
67308;Laerm;57662;51.436;5.978;2022-08-02T00:52:45;33.45;32.33;34.72;;
67308;Laerm;57662;51.436;5.978;2022-08-02T00:52:55;33.32;32.12;34.63;;
67308;Laerm;57662;51.436;5.978;2022-08-02T00:53:06;33.40;32.13;34.86;;
67308;Laerm;57662;51.436;5.978;2022-08-02T00:53:20;33.40;32.09;34.57;;
67308;Laerm;57662;51.436;5.978;2022-08-02T00:53:31;33.38;31.84;34.62;;
67308;Laerm;57662;51.436;5.978;2022-08-02T00:53:41;33.46;31.82;35.02;;
67308;Laerm;57662;51.436;5.978;2022-08-02T00:53:52;33.41;32.28;34.74;;
67308;Laerm;57662;51.436;5.978;2022-08-02T00:54:02;33.55;32.35;34.72;;
67308;Laerm;57662;51.436;5.978;2022-08-02T00:54:12;33.51;32.31;35.01;;
67308;Laerm;57662;51.436;5.978;2022-08-02T00:54:23;33.55;32.16;34.92;;
67308;Laerm;57662;51.436;5.978;2022-08-02T00:54:34;33.64;32.27;34.70;;
67308;Laerm;57662;51.436;5.978;2022-08-02T00:54:44;33.72;32.67;35.04;;
67308;Laerm;57662;51.436;5.978;2022-08-02T00:54:54;33.87;32.41;35.11;;
67308;Laerm;57662;51.436;5.978;2022-08-02T00:55:05;33.55;32.42;34.92;;
67308;Laerm;57662;51.436;5.978;2022-08-02T00:55:15;33.45;32.17;34.77;;
67308;Laerm;57662;51.436;5.978;2022-08-02T00:55:25;33.44;31.87;34.72;;
67308;Laerm;57662;51.436;5.978;2022-08-02T00:55:36;33.34;31.99;34.49;;
67308;Laerm;57662;51.436;5.978;2022-08-02T00:55:46;33.39;32.24;34.65;;
67308;Laerm;57662;51.436;5.978;2022-08-02T00:55:57;33.44;32.14;34.91;;
67308;Laerm;57662;51.436;5.978;2022-08-02T00:56:07;33.33;32.14;34.68;;
67308;Laerm;57662;51.436;5.978;2022-08-02T00:56:18;33.48;32.30;34.47;;
67308;Laerm;57662;51.436;5.978;2022-08-02T00:56:28;33.42;32.09;34.82;;
67308;Laerm;57662;51.436;5.978;2022-08-02T00:56:39;33.31;32.25;34.52;;
67308;Laerm;57662;51.436;5.978;2022-08-02T00:56:49;33.16;32.02;34.52;;
67308;Laerm;57662;51.436;5.978;2022-08-02T00:56:59;33.39;31.80;38.06;;
67308;Laerm;57662;51.436;5.978;2022-08-02T00:57:09;33.26;31.89;34.38;;
67308;Laerm;57662;51.436;5.978;2022-08-02T00:57:20;33.24;31.99;34.35;;
67308;Laerm;57662;51.436;5.978;2022-08-02T00:57:30;33.32;31.90;34.43;;
67308;Laerm;57662;51.436;5.978;2022-08-02T00:57:40;33.47;31.98;34.69;;
67308;Laerm;57662;51.436;5.978;2022-08-02T00:57:50;33.52;31.97;34.70;;
67308;Laerm;57662;51.436;5.978;2022-08-02T00:58:01;33.38;31.88;34.61;;
67308;Laerm;57662;51.436;5.978;2022-08-02T00:58:11;33.59;32.30;35.08;;
67308;Laerm;57662;51.436;5.978;2022-08-02T00:58:21;33.71;32.38;34.81;;
67308;Laerm;57662;51.436;5.978;2022-08-02T00:58:32;33.75;32.48;35.13;;